sensor_id;sensor_type;location;lat;lon;timestamp;P1;durP1;ratioP1;P2;durP2;ratioP2
10383;SDS011;5238;43.508;4.980;2022-09-09T00:01:00;4.50;;;2.33;;
10383;SDS011;5238;43.508;4.980;2022-09-09T00:03:39;4.07;;;2.72;;
10383;SDS011;5238;43.508;4.980;2022-09-09T00:06:14;4.13;;;2.92;;
10383;SDS011;5238;43.508;4.980;2022-09-09T00:08:48;4.22;;;2.30;;
10383;SDS011;5238;43.508;4.980;2022-09-09T00:11:24;5.93;;;2.08;;
10383;SDS011;5238;43.508;4.980;2022-09-09T00:13:55;3.30;;;2.40;;
10383;SDS011;5238;43.508;4.980;2022-09-09T00:16:31;4.53;;;2.63;;
10383;SDS011;5238;43.508;4.980;2022-09-09T00:19:04;5.15;;;2.53;;
10383;SDS011;5238;43.508;4.980;2022-09-09T00:21:35;6.28;;;3.78;;
10383;SDS011;5238;43.508;4.980;2022-09-09T00:24:08;3.67;;;2.38;;
10383;SDS011;5238;43.508;4.980;2022-09-09T00:27:00;5.45;;;2.58;;
10383;SDS011;5238;43.508;4.980;2022-09-09T00:29:35;3.75;;;2.30;;
10383;SDS011;5238;43.508;4.980;2022-09-09T00:32:11;3.55;;;2.35;;
10383;SDS011;5238;43.508;4.980;2022-09-09T00:34:42;4.30;;;2.33;;
10383;SDS011;5238;43.508;4.980;2022-09-09T00:37:14;3.50;;;2.33;;
10383;SDS011;5238;43.508;4.980;2022-09-09T00:39:42;4.25;;;2.78;;
10383;SDS011;5238;43.508;4.980;2022-09-09T00:42:13;3.38;;;2.35;;
10383;SDS011;5238;43.508;4.980;2022-09-09T00:44:49;3.85;;;2.50;;
10383;SDS011;5238;43.508;4.980;2022-09-09T00:47:39;3.17;;;2.38;;
10383;SDS011;5238;43.508;4.980;2022-09-09T00:53:11;2.92;;;1.98;;
10383;SDS011;5238;43.508;4.980;2022-09-09T00:55:52;3.13;;;2.08;;
10383;SDS011;5238;43.508;4.980;2022-09-09T00:58:24;8.52;;;2.38;;
10383;SDS011;5238;43.508;4.980;2022-09-09T01:00:55;2.33;;;2.10;;
10383;SDS011;5238;43.508;4.980;2022-09-09T01:13:46;3.65;;;1.98;;
10383;SDS011;5238;43.508;4.980;2022-09-09T01:16:21;2.30;;;2.10;;
10383;SDS011;5238;43.508;4.980;2022-09-09T01:25:28;2.60;;;2.13;;
10383;SDS011;5238;43.508;4.980;2022-09-09T01:28:16;3.85;;;2.60;;
10383;SDS011;5238;43.508;4.980;2022-09-09T01:30:47;4.20;;;2.25;;
10383;SDS011;5238;43.508;4.980;2022-09-09T01:33:16;6.90;;;2.25;;
10383;SDS011;5238;43.508;4.980;2022-09-09T01:35:45;3.42;;;2.22;;
10383;SDS011;5238;43.508;4.980;2022-09-09T01:38:19;4.30;;;2.08;;
10383;SDS011;5238;43.508;4.980;2022-09-09T01:40:46;5.82;;;2.42;;
10383;SDS011;5238;43.508;4.980;2022-09-09T01:43:17;4.70;;;2.53;;
10383;SDS011;5238;43.508;4.980;2022-09-09T01:59:24;4.05;;;2.30;;
10383;SDS011;5238;43.508;4.980;2022-09-09T02:02:10;4.63;;;2.10;;
10383;SDS011;5238;43.508;4.980;2022-09-09T02:04:41;3.28;;;2.50;;
10383;SDS011;5238;43.508;4.980;2022-09-09T02:10:10;3.78;;;2.38;;
10383;SDS011;5238;43.508;4.980;2022-09-09T02:12:42;3.95;;;2.33;;
10383;SDS011;5238;43.508;4.980;2022-09-09T02:15:14;4.07;;;2.40;;
10383;SDS011;5238;43.508;4.980;2022-09-09T02:17:53;3.72;;;2.45;;
10383;SDS011;5238;43.508;4.980;2022-09-09T02:20:24;4.60;;;3.05;;
10383;SDS011;5238;43.508;4.980;2022-09-09T02:29:45;3.78;;;1.95;;
10383;SDS011;5238;43.508;4.980;2022-09-09T02:32:22;2.50;;;1.80;;
10383;SDS011;5238;43.508;4.980;2022-09-09T02:34:55;4.63;;;2.75;;
10383;SDS011;5238;43.508;4.980;2022-09-09T02:37:30;2.35;;;2.15;;
10383;SDS011;5238;43.508;4.980;2022-09-09T02:40:04;3.63;;;2.40;;
10383;SDS011;5238;43.508;4.980;2022-09-09T02:42:38;4.43;;;3.15;;
10383;SDS011;5238;43.508;4.980;2022-09-09T02:45:08;2.97;;;2.00;;
10383;SDS011;5238;43.508;4.980;2022-09-09T02:47:50;3.90;;;1.95;;
10383;SDS011;5238;43.508;4.980;2022-09-09T02:50:25;5.30;;;2.20;;
10383;SDS011;5238;43.508;4.980;2022-09-09T02:53:01;2.92;;;2.28;;
10383;SDS011;5238;43.508;4.980;2022-09-09T02:55:37;2.47;;;2.25;;
10383;SDS011;5238;43.508;4.980;2022-09-09T02:58:08;4.05;;;2.60;;
10383;SDS011;5238;43.508;4.980;2022-09-09T03:00:42;3.78;;;3.13;;
10383;SDS011;5238;43.508;4.980;2022-09-09T03:03:14;2.83;;;1.83;;
10383;SDS011;5238;43.508;4.980;2022-09-09T03:05:43;2.38;;;2.17;;
10383;SDS011;5238;43.508;4.980;2022-09-09T03:08:10;3.03;;;2.30;;
10383;SDS011;5238;43.508;4.980;2022-09-09T03:10:39;4.63;;;2.53;;
10383;SDS011;5238;43.508;4.980;2022-09-09T03:13:07;4.10;;;3.10;;
10383;SDS011;5238;43.508;4.980;2022-09-09T03:15:34;2.90;;;1.67;;
10383;SDS011;5238;43.508;4.980;2022-09-09T03:18:04;2.78;;;2.05;;
10383;SDS011;5238;43.508;4.980;2022-09-09T03:20:33;4.93;;;2.42;;
10383;SDS011;5238;43.508;4.980;2022-09-09T03:29:58;2.70;;;2.47;;
10383;SDS011;5238;43.508;4.980;2022-09-09T03:32:29;3.78;;;2.63;;
10383;SDS011;5238;43.508;4.980;2022-09-09T03:34:56;2.17;;;1.90;;
10383;SDS011;5238;43.508;4.980;2022-09-09T03:37:25;5.82;;;2.60;;
10383;SDS011;5238;43.508;4.980;2022-09-09T03:39:52;4.15;;;2.60;;
10383;SDS011;5238;43.508;4.980;2022-09-09T03:42:20;4.55;;;2.95;;
10383;SDS011;5238;43.508;4.980;2022-09-09T03:44:47;5.18;;;2.50;;
10383;SDS011;5238;43.508;4.980;2022-09-09T03:47:17;9.25;;;3.42;;
10383;SDS011;5238;43.508;4.980;2022-09-09T03:49:48;7.68;;;3.78;;
10383;SDS011;5238;43.508;4.980;2022-09-09T03:52:16;8.40;;;3.65;;
10383;SDS011;5238;43.508;4.980;2022-09-09T03:54:45;5.65;;;3.42;;
10383;SDS011;5238;43.508;4.980;2022-09-09T03:57:13;6.05;;;2.95;;
10383;SDS011;5238;43.508;4.980;2022-09-09T03:59:42;2.88;;;2.55;;
10383;SDS011;5238;43.508;4.980;2022-09-09T04:02:09;4.82;;;2.92;;
10383;SDS011;5238;43.508;4.980;2022-09-09T04:04:37;5.68;;;3.55;;
10383;SDS011;5238;43.508;4.980;2022-09-09T04:07:04;4.88;;;2.47;;
10383;SDS011;5238;43.508;4.980;2022-09-09T04:09:32;6.05;;;2.30;;
10383;SDS011;5238;43.508;4.980;2022-09-09T04:12:01;3.60;;;2.50;;
10383;SDS011;5238;43.508;4.980;2022-09-09T04:14:30;4.70;;;3.10;;
10383;SDS011;5238;43.508;4.980;2022-09-09T04:20:20;3.08;;;2.40;;
10383;SDS011;5238;43.508;4.980;2022-09-09T04:22:47;4.10;;;2.90;;
10383;SDS011;5238;43.508;4.980;2022-09-09T04:25:20;2.30;;;2.08;;
10383;SDS011;5238;43.508;4.980;2022-09-09T04:27:54;3.72;;;2.20;;
10383;SDS011;5238;43.508;4.980;2022-09-09T04:30:23;5.10;;;2.58;;
10383;SDS011;5238;43.508;4.980;2022-09-09T04:32:52;3.42;;;2.80;;
10383;SDS011;5238;43.508;4.980;2022-09-09T04:35:19;3.42;;;3.13;;
10383;SDS011;5238;43.508;4.980;2022-09-09T04:37:46;5.45;;;3.30;;
10383;SDS011;5238;43.508;4.980;2022-09-09T04:40:14;3.70;;;2.50;;
10383;SDS011;5238;43.508;4.980;2022-09-09T04:42:43;4.78;;;2.40;;
10383;SDS011;5238;43.508;4.980;2022-09-09T04:45:13;6.32;;;4.40;;
10383;SDS011;5238;43.508;4.980;2022-09-09T04:47:51;10.32;;;4.15;;
10383;SDS011;5238;43.508;4.980;2022-09-09T04:50:29;4.65;;;3.45;;
10383;SDS011;5238;43.508;4.980;2022-09-09T04:53:03;4.53;;;2.88;;
10383;SDS011;5238;43.508;4.980;2022-09-09T04:56:00;4.57;;;3.05;;
10383;SDS011;5238;43.508;4.980;2022-09-09T04:58:29;6.00;;;2.88;;
10383;SDS011;5238;43.508;4.980;2022-09-09T05:04:12;6.68;;;3.10;;
10383;SDS011;5238;43.508;4.980;2022-09-09T05:06:40;4.15;;;2.42;;
10383;SDS011;5238;43.508;4.980;2022-09-09T05:09:11;4.05;;;2.55;;
10383;SDS011;5238;43.508;4.980;2022-09-09T05:11:38;5.90;;;2.40;;
10383;SDS011;5238;43.508;4.980;2022-09-09T05:14:09;17.25;;;4.22;;
10383;SDS011;5238;43.508;4.980;2022-09-09T05:16:38;7.80;;;2.95;;
10383;SDS011;5238;43.508;4.980;2022-09-09T05:19:09;4.45;;;2.97;;
10383;SDS011;5238;43.508;4.980;2022-09-09T05:21:38;3.67;;;2.78;;
10383;SDS011;5238;43.508;4.980;2022-09-09T05:24:06;4.10;;;3.30;;
10383;SDS011;5238;43.508;4.980;2022-09-09T05:33:01;3.10;;;2.80;;
10383;SDS011;5238;43.508;4.980;2022-09-09T05:35:31;7.78;;;3.00;;
10383;SDS011;5238;43.508;4.980;2022-09-09T05:38:00;4.82;;;3.38;;
10383;SDS011;5238;43.508;4.980;2022-09-09T05:40:27;5.25;;;2.35;;
10383;SDS011;5238;43.508;4.980;2022-09-09T05:42:55;4.05;;;2.30;;
10383;SDS011;5238;43.508;4.980;2022-09-09T05:45:27;3.83;;;2.10;;
10383;SDS011;5238;43.508;4.980;2022-09-09T05:47:54;2.90;;;2.00;;
10383;SDS011;5238;43.508;4.980;2022-09-09T05:50:22;6.68;;;2.78;;
10383;SDS011;5238;43.508;4.980;2022-09-09T05:52:49;4.68;;;3.05;;
10383;SDS011;5238;43.508;4.980;2022-09-09T05:55:18;4.72;;;2.45;;
10383;SDS011;5238;43.508;4.980;2022-09-09T05:57:48;2.53;;;2.17;;
10383;SDS011;5238;43.508;4.980;2022-09-09T06:00:18;4.00;;;2.50;;
10383;SDS011;5238;43.508;4.980;2022-09-09T06:02:50;2.17;;;1.90;;
10383;SDS011;5238;43.508;4.980;2022-09-09T06:05:18;3.75;;;2.80;;
10383;SDS011;5238;43.508;4.980;2022-09-09T06:07:47;3.15;;;2.78;;
10383;SDS011;5238;43.508;4.980;2022-09-09T06:10:22;3.65;;;1.88;;
10383;SDS011;5238;43.508;4.980;2022-09-09T06:12:52;2.45;;;2.08;;
10383;SDS011;5238;43.508;4.980;2022-09-09T06:15:30;2.88;;;2.17;;
10383;SDS011;5238;43.508;4.980;2022-09-09T06:17:57;7.53;;;2.30;;
10383;SDS011;5238;43.508;4.980;2022-09-09T06:20:24;4.43;;;2.55;;
10383;SDS011;5238;43.508;4.980;2022-09-09T06:22:51;4.18;;;2.28;;
10383;SDS011;5238;43.508;4.980;2022-09-09T06:25:20;2.97;;;1.77;;
10383;SDS011;5238;43.508;4.980;2022-09-09T06:27:53;4.38;;;1.98;;
10383;SDS011;5238;43.508;4.980;2022-09-09T06:30:20;6.55;;;2.30;;
10383;SDS011;5238;43.508;4.980;2022-09-09T06:32:51;3.60;;;2.15;;
10383;SDS011;5238;43.508;4.980;2022-09-09T06:35:18;5.93;;;2.92;;
10383;SDS011;5238;43.508;4.980;2022-09-09T06:37:45;4.63;;;2.10;;
10383;SDS011;5238;43.508;4.980;2022-09-09T06:40:14;3.50;;;1.92;;
10383;SDS011;5238;43.508;4.980;2022-09-09T06:42:41;2.92;;;2.17;;
10383;SDS011;5238;43.508;4.980;2022-09-09T06:45:10;3.45;;;2.25;;
10383;SDS011;5238;43.508;4.980;2022-09-09T06:47:37;3.35;;;2.47;;
10383;SDS011;5238;43.508;4.980;2022-09-09T06:50:04;2.35;;;2.15;;
10383;SDS011;5238;43.508;4.980;2022-09-09T06:52:36;3.38;;;1.83;;
10383;SDS011;5238;43.508;4.980;2022-09-09T06:55:03;2.58;;;2.05;;
10383;SDS011;5238;43.508;4.980;2022-09-09T06:57:34;3.50;;;2.20;;
10383;SDS011;5238;43.508;4.980;2022-09-09T07:00:02;3.25;;;2.50;;
10383;SDS011;5238;43.508;4.980;2022-09-09T07:02:33;3.28;;;1.77;;
10383;SDS011;5238;43.508;4.980;2022-09-09T07:05:04;3.75;;;2.13;;
10383;SDS011;5238;43.508;4.980;2022-09-09T07:07:33;3.33;;;2.08;;
10383;SDS011;5238;43.508;4.980;2022-09-09T07:10:00;2.88;;;2.15;;
10383;SDS011;5238;43.508;4.980;2022-09-09T07:12:30;5.47;;;2.83;;
10383;SDS011;5238;43.508;4.980;2022-09-09T07:14:57;3.92;;;2.10;;
10383;SDS011;5238;43.508;4.980;2022-09-09T07:17:24;6.40;;;1.95;;
10383;SDS011;5238;43.508;4.980;2022-09-09T07:19:56;4.03;;;2.20;;
10383;SDS011;5238;43.508;4.980;2022-09-09T07:22:23;2.45;;;2.20;;
10383;SDS011;5238;43.508;4.980;2022-09-09T07:24:50;4.63;;;2.78;;
10383;SDS011;5238;43.508;4.980;2022-09-09T07:27:17;3.55;;;1.85;;
10383;SDS011;5238;43.508;4.980;2022-09-09T07:29:44;3.58;;;2.20;;
10383;SDS011;5238;43.508;4.980;2022-09-09T07:32:11;4.25;;;2.30;;
10383;SDS011;5238;43.508;4.980;2022-09-09T07:34:38;3.22;;;2.03;;
10383;SDS011;5238;43.508;4.980;2022-09-09T07:37:07;2.75;;;2.20;;
10383;SDS011;5238;43.508;4.980;2022-09-09T07:39:38;3.03;;;1.80;;
10383;SDS011;5238;43.508;4.980;2022-09-09T07:42:08;3.15;;;1.85;;
10383;SDS011;5238;43.508;4.980;2022-09-09T07:44:37;3.10;;;2.28;;
10383;SDS011;5238;43.508;4.980;2022-09-09T07:47:05;5.70;;;2.30;;
10383;SDS011;5238;43.508;4.980;2022-09-09T07:49:32;3.92;;;2.33;;
10383;SDS011;5238;43.508;4.980;2022-09-09T07:51:59;4.15;;;2.85;;
10383;SDS011;5238;43.508;4.980;2022-09-09T07:54:30;3.22;;;1.58;;
10383;SDS011;5238;43.508;4.980;2022-09-09T07:56:59;3.85;;;2.03;;
10383;SDS011;5238;43.508;4.980;2022-09-09T07:59:25;3.47;;;1.85;;
10383;SDS011;5238;43.508;4.980;2022-09-09T08:01:55;2.08;;;1.88;;
10383;SDS011;5238;43.508;4.980;2022-09-09T08:04:23;4.82;;;2.10;;
10383;SDS011;5238;43.508;4.980;2022-09-09T08:06:52;2.85;;;1.85;;
10383;SDS011;5238;43.508;4.980;2022-09-09T08:09:20;2.15;;;1.42;;
10383;SDS011;5238;43.508;4.980;2022-09-09T08:11:51;2.17;;;1.75;;
10383;SDS011;5238;43.508;4.980;2022-09-09T08:14:18;2.03;;;1.50;;
10383;SDS011;5238;43.508;4.980;2022-09-09T08:16:45;3.20;;;1.65;;
10383;SDS011;5238;43.508;4.980;2022-09-09T08:19:13;2.00;;;1.50;;
10383;SDS011;5238;43.508;4.980;2022-09-09T08:21:41;2.13;;;2.00;;
10383;SDS011;5238;43.508;4.980;2022-09-09T08:24:09;3.30;;;1.75;;
10383;SDS011;5238;43.508;4.980;2022-09-09T08:26:39;3.47;;;1.60;;
10383;SDS011;5238;43.508;4.980;2022-09-09T08:29:09;2.92;;;1.80;;
10383;SDS011;5238;43.508;4.980;2022-09-09T08:31:39;5.25;;;1.83;;
10383;SDS011;5238;43.508;4.980;2022-09-09T08:34:07;2.40;;;2.20;;
10383;SDS011;5238;43.508;4.980;2022-09-09T08:36:36;2.85;;;2.30;;
10383;SDS011;5238;43.508;4.980;2022-09-09T08:39:04;2.45;;;1.50;;
10383;SDS011;5238;43.508;4.980;2022-09-09T08:44:49;2.45;;;1.83;;
10383;SDS011;5238;43.508;4.980;2022-09-09T08:47:36;4.10;;;2.05;;
10383;SDS011;5238;43.508;4.980;2022-09-09T08:50:17;2.30;;;2.13;;
10383;SDS011;5238;43.508;4.980;2022-09-09T08:52:52;1.73;;;1.63;;
10383;SDS011;5238;43.508;4.980;2022-09-09T08:55:27;1.38;;;1.10;;
10383;SDS011;5238;43.508;4.980;2022-09-09T08:58:04;2.97;;;1.50;;
10383;SDS011;5238;43.508;4.980;2022-09-09T09:00:48;2.63;;;1.30;;
10383;SDS011;5238;43.508;4.980;2022-09-09T09:03:28;2.47;;;1.50;;
10383;SDS011;5238;43.508;4.980;2022-09-09T09:06:05;2.80;;;1.60;;
10383;SDS011;5238;43.508;4.980;2022-09-09T09:11:56;2.50;;;2.30;;
10383;SDS011;5238;43.508;4.980;2022-09-09T09:14:27;1.80;;;1.70;;
10383;SDS011;5238;43.508;4.980;2022-09-09T09:16:58;1.52;;;1.17;;
10383;SDS011;5238;43.508;4.980;2022-09-09T09:19:28;2.25;;;1.30;;
10383;SDS011;5238;43.508;4.980;2022-09-09T09:22:00;2.42;;;1.52;;
10383;SDS011;5238;43.508;4.980;2022-09-09T09:24:36;2.05;;;1.85;;
10383;SDS011;5238;43.508;4.980;2022-09-09T09:27:12;4.30;;;2.30;;
10383;SDS011;5238;43.508;4.980;2022-09-09T09:29:41;2.08;;;1.77;;
10383;SDS011;5238;43.508;4.980;2022-09-09T09:32:16;3.55;;;1.35;;
10383;SDS011;5238;43.508;4.980;2022-09-09T09:34:48;2.78;;;1.35;;
10383;SDS011;5238;43.508;4.980;2022-09-09T09:37:20;2.13;;;1.42;;
10383;SDS011;5238;43.508;4.980;2022-09-09T09:39:53;2.67;;;1.40;;
10383;SDS011;5238;43.508;4.980;2022-09-09T09:42:20;2.17;;;1.45;;
10383;SDS011;5238;43.508;4.980;2022-09-09T09:44:50;1.58;;;1.45;;
10383;SDS011;5238;43.508;4.980;2022-09-09T09:47:19;2.42;;;2.22;;
10383;SDS011;5238;43.508;4.980;2022-09-09T09:49:52;2.38;;;2.13;;
10383;SDS011;5238;43.508;4.980;2022-09-09T09:52:22;1.20;;;1.10;;
10383;SDS011;5238;43.508;4.980;2022-09-09T09:54:54;1.70;;;1.60;;
10383;SDS011;5238;43.508;4.980;2022-09-09T09:57:24;1.88;;;1.50;;
10383;SDS011;5238;43.508;4.980;2022-09-09T10:00:03;1.73;;;1.42;;
10383;SDS011;5238;43.508;4.980;2022-09-09T10:02:40;3.80;;;1.30;;
10383;SDS011;5238;43.508;4.980;2022-09-09T10:05:13;2.08;;;1.52;;
10383;SDS011;5238;43.508;4.980;2022-09-09T10:07:47;2.10;;;1.70;;
10383;SDS011;5238;43.508;4.980;2022-09-09T10:10:26;3.03;;;1.30;;
10383;SDS011;5238;43.508;4.980;2022-09-09T10:13:08;3.08;;;1.48;;
10383;SDS011;5238;43.508;4.980;2022-09-09T10:15:44;1.38;;;1.27;;
10383;SDS011;5238;43.508;4.980;2022-09-09T10:18:29;2.20;;;1.20;;
10383;SDS011;5238;43.508;4.980;2022-09-09T10:21:10;1.48;;;1.35;;
10383;SDS011;5238;43.508;4.980;2022-09-09T10:23:58;1.63;;;1.42;;
10383;SDS011;5238;43.508;4.980;2022-09-09T10:26:51;1.20;;;1.02;;
10383;SDS011;5238;43.508;4.980;2022-09-09T10:32:16;2.03;;;1.30;;
10383;SDS011;5238;43.508;4.980;2022-09-09T10:35:04;1.98;;;1.60;;
10383;SDS011;5238;43.508;4.980;2022-09-09T10:37:51;1.40;;;1.30;;
10383;SDS011;5238;43.508;4.980;2022-09-09T10:40:41;1.52;;;1.10;;
10383;SDS011;5238;43.508;4.980;2022-09-09T10:43:29;4.40;;;2.15;;
10383;SDS011;5238;43.508;4.980;2022-09-09T10:46:06;1.92;;;1.83;;
10383;SDS011;5238;43.508;4.980;2022-09-09T10:48:53;1.77;;;1.55;;
10383;SDS011;5238;43.508;4.980;2022-09-09T10:51:35;2.50;;;2.30;;
10383;SDS011;5238;43.508;4.980;2022-09-09T10:54:14;3.45;;;2.10;;
10383;SDS011;5238;43.508;4.980;2022-09-09T10:56:52;2.63;;;2.05;;
10383;SDS011;5238;43.508;4.980;2022-09-09T10:59:23;2.17;;;1.48;;
10383;SDS011;5238;43.508;4.980;2022-09-09T11:01:53;2.13;;;1.25;;
10383;SDS011;5238;43.508;4.980;2022-09-09T11:04:27;1.05;;;1.00;;
10383;SDS011;5238;43.508;4.980;2022-09-09T11:07:10;2.50;;;1.38;;
10383;SDS011;5238;43.508;4.980;2022-09-09T11:09:41;1.70;;;1.58;;
10383;SDS011;5238;43.508;4.980;2022-09-09T11:12:12;1.60;;;1.45;;
10383;SDS011;5238;43.508;4.980;2022-09-09T11:14:45;2.08;;;1.45;;
10383;SDS011;5238;43.508;4.980;2022-09-09T11:17:18;2.63;;;2.42;;
10383;SDS011;5238;43.508;4.980;2022-09-09T11:19:48;2.15;;;1.88;;
10383;SDS011;5238;43.508;4.980;2022-09-09T11:22:19;2.22;;;1.25;;
10383;SDS011;5238;43.508;4.980;2022-09-09T11:24:59;1.60;;;1.50;;
10383;SDS011;5238;43.508;4.980;2022-09-09T11:27:31;1.70;;;1.55;;
10383;SDS011;5238;43.508;4.980;2022-09-09T11:36:07;1.65;;;1.15;;
10383;SDS011;5238;43.508;4.980;2022-09-09T11:38:56;1.35;;;1.23;;
10383;SDS011;5238;43.508;4.980;2022-09-09T11:41:33;1.65;;;1.35;;
10383;SDS011;5238;43.508;4.980;2022-09-09T11:44:09;2.17;;;1.40;;
10383;SDS011;5238;43.508;4.980;2022-09-09T11:46:39;2.67;;;1.65;;
10383;SDS011;5238;43.508;4.980;2022-09-09T11:49:21;1.73;;;1.63;;
10383;SDS011;5238;43.508;4.980;2022-09-09T11:51:53;1.67;;;1.58;;
10383;SDS011;5238;43.508;4.980;2022-09-09T11:54:30;2.20;;;1.80;;
10383;SDS011;5238;43.508;4.980;2022-09-09T11:57:01;2.15;;;1.95;;
10383;SDS011;5238;43.508;4.980;2022-09-09T11:59:30;2.15;;;1.17;;
10383;SDS011;5238;43.508;4.980;2022-09-09T12:01:59;1.35;;;1.25;;
10383;SDS011;5238;43.508;4.980;2022-09-09T12:04:32;2.45;;;1.65;;
10383;SDS011;5238;43.508;4.980;2022-09-09T12:07:05;1.83;;;1.70;;
10383;SDS011;5238;43.508;4.980;2022-09-09T12:09:51;3.25;;;1.23;;
10383;SDS011;5238;43.508;4.980;2022-09-09T12:12:23;1.67;;;1.50;;
10383;SDS011;5238;43.508;4.980;2022-09-09T12:15:16;2.05;;;1.85;;
10383;SDS011;5238;43.508;4.980;2022-09-09T12:17:54;1.75;;;1.50;;
10383;SDS011;5238;43.508;4.980;2022-09-09T12:20:23;2.22;;;2.03;;
10383;SDS011;5238;43.508;4.980;2022-09-09T12:28:58;2.00;;;1.40;;
10383;SDS011;5238;43.508;4.980;2022-09-09T12:31:34;1.88;;;1.77;;
10383;SDS011;5238;43.508;4.980;2022-09-09T12:34:10;2.10;;;1.90;;
10383;SDS011;5238;43.508;4.980;2022-09-09T12:36:41;2.00;;;1.90;;
10383;SDS011;5238;43.508;4.980;2022-09-09T12:39:17;1.40;;;1.25;;
10383;SDS011;5238;43.508;4.980;2022-09-09T12:41:57;2.78;;;1.35;;
10383;SDS011;5238;43.508;4.980;2022-09-09T12:44:25;1.70;;;1.60;;
10383;SDS011;5238;43.508;4.980;2022-09-09T12:46:56;1.50;;;1.40;;
10383;SDS011;5238;43.508;4.980;2022-09-09T12:49:29;1.67;;;1.58;;
10383;SDS011;5238;43.508;4.980;2022-09-09T12:52:02;1.50;;;1.40;;
10383;SDS011;5238;43.508;4.980;2022-09-09T12:54:35;3.78;;;2.45;;
10383;SDS011;5238;43.508;4.980;2022-09-09T12:57:09;1.80;;;1.63;;
10383;SDS011;5238;43.508;4.980;2022-09-09T12:59:40;1.25;;;1.00;;
10383;SDS011;5238;43.508;4.980;2022-09-09T13:02:11;1.38;;;1.25;;
10383;SDS011;5238;43.508;4.980;2022-09-09T13:04:45;3.80;;;1.45;;
10383;SDS011;5238;43.508;4.980;2022-09-09T13:07:13;2.88;;;1.52;;
10383;SDS011;5238;43.508;4.980;2022-09-09T13:09:43;2.72;;;1.50;;
10383;SDS011;5238;43.508;4.980;2022-09-09T13:12:14;2.28;;;2.08;;
10383;SDS011;5238;43.508;4.980;2022-09-09T13:14:44;1.65;;;1.55;;
10383;SDS011;5238;43.508;4.980;2022-09-09T13:17:18;1.20;;;1.10;;
10383;SDS011;5238;43.508;4.980;2022-09-09T13:19:47;1.48;;;1.38;;
10383;SDS011;5238;43.508;4.980;2022-09-09T13:22:20;2.85;;;1.60;;
10383;SDS011;5238;43.508;4.980;2022-09-09T13:24:58;4.30;;;1.63;;
10383;SDS011;5238;43.508;4.980;2022-09-09T13:27:33;2.20;;;1.50;;
10383;SDS011;5238;43.508;4.980;2022-09-09T13:30:19;2.42;;;2.22;;
10383;SDS011;5238;43.508;4.980;2022-09-09T13:32:59;3.70;;;1.90;;
10383;SDS011;5238;43.508;4.980;2022-09-09T13:35:27;3.05;;;1.75;;
10383;SDS011;5238;43.508;4.980;2022-09-09T13:37:58;2.33;;;1.40;;
10383;SDS011;5238;43.508;4.980;2022-09-09T13:40:51;2.10;;;1.92;;
10383;SDS011;5238;43.508;4.980;2022-09-09T13:43:22;1.80;;;1.30;;
10383;SDS011;5238;43.508;4.980;2022-09-09T13:45:52;2.85;;;1.58;;
10383;SDS011;5238;43.508;4.980;2022-09-09T13:48:24;2.30;;;1.88;;
10383;SDS011;5238;43.508;4.980;2022-09-09T13:50:58;1.80;;;1.70;;
10383;SDS011;5238;43.508;4.980;2022-09-09T13:53:28;1.42;;;1.30;;
10383;SDS011;5238;43.508;4.980;2022-09-09T13:55:55;1.85;;;1.75;;
10383;SDS011;5238;43.508;4.980;2022-09-09T13:58:25;1.35;;;1.05;;
10383;SDS011;5238;43.508;4.980;2022-09-09T14:00:55;1.58;;;1.48;;
10383;SDS011;5238;43.508;4.980;2022-09-09T14:03:22;1.42;;;1.30;;
10383;SDS011;5238;43.508;4.980;2022-09-09T14:05:49;1.50;;;1.40;;
10383;SDS011;5238;43.508;4.980;2022-09-09T14:08:25;1.67;;;1.58;;
10383;SDS011;5238;43.508;4.980;2022-09-09T14:11:12;1.55;;;1.45;;
10383;SDS011;5238;43.508;4.980;2022-09-09T14:13:42;1.42;;;1.33;;
10383;SDS011;5238;43.508;4.980;2022-09-09T14:16:09;1.83;;;1.73;;
10383;SDS011;5238;43.508;4.980;2022-09-09T14:18:36;2.15;;;1.70;;
10383;SDS011;5238;43.508;4.980;2022-09-09T14:21:05;2.50;;;1.08;;
10383;SDS011;5238;43.508;4.980;2022-09-09T14:23:34;5.80;;;1.80;;
10383;SDS011;5238;43.508;4.980;2022-09-09T14:26:01;1.92;;;1.45;;
10383;SDS011;5238;43.508;4.980;2022-09-09T14:28:28;2.00;;;1.90;;
10383;SDS011;5238;43.508;4.980;2022-09-09T14:30:58;1.60;;;1.50;;
10383;SDS011;5238;43.508;4.980;2022-09-09T14:33:25;1.70;;;1.48;;
10383;SDS011;5238;43.508;4.980;2022-09-09T14:35:55;1.90;;;1.48;;
10383;SDS011;5238;43.508;4.980;2022-09-09T14:38:23;2.03;;;1.42;;
10383;SDS011;5238;43.508;4.980;2022-09-09T14:40:50;2.95;;;1.48;;
10383;SDS011;5238;43.508;4.980;2022-09-09T14:43:18;2.65;;;2.10;;
10383;SDS011;5238;43.508;4.980;2022-09-09T14:45:45;1.35;;;1.25;;
10383;SDS011;5238;43.508;4.980;2022-09-09T14:48:14;1.63;;;1.52;;
10383;SDS011;5238;43.508;4.980;2022-09-09T14:50:41;1.95;;;1.83;;
10383;SDS011;5238;43.508;4.980;2022-09-09T14:53:08;4.15;;;1.60;;
10383;SDS011;5238;43.508;4.980;2022-09-09T14:55:36;2.45;;;2.25;;
10383;SDS011;5238;43.508;4.980;2022-09-09T14:58:04;1.20;;;1.10;;
10383;SDS011;5238;43.508;4.980;2022-09-09T15:00:31;1.63;;;1.52;;
10383;SDS011;5238;43.508;4.980;2022-09-09T15:02:59;1.60;;;1.50;;
10383;SDS011;5238;43.508;4.980;2022-09-09T15:05:27;1.70;;;1.60;;
10383;SDS011;5238;43.508;4.980;2022-09-09T15:07:56;1.80;;;1.70;;
10383;SDS011;5238;43.508;4.980;2022-09-09T15:10:24;2.72;;;1.77;;
10383;SDS011;5238;43.508;4.980;2022-09-09T15:12:51;2.25;;;1.27;;
10383;SDS011;5238;43.508;4.980;2022-09-09T15:15:19;2.28;;;1.50;;
10383;SDS011;5238;43.508;4.980;2022-09-09T15:17:46;1.80;;;1.58;;
10383;SDS011;5238;43.508;4.980;2022-09-09T15:20:13;1.90;;;1.70;;
10383;SDS011;5238;43.508;4.980;2022-09-09T15:22:43;2.30;;;1.45;;
10383;SDS011;5238;43.508;4.980;2022-09-09T15:25:11;1.73;;;1.63;;
10383;SDS011;5238;43.508;4.980;2022-09-09T15:27:38;2.13;;;1.40;;
10383;SDS011;5238;43.508;4.980;2022-09-09T15:30:06;2.10;;;1.40;;
10383;SDS011;5238;43.508;4.980;2022-09-09T15:32:35;1.63;;;1.52;;
10383;SDS011;5238;43.508;4.980;2022-09-09T15:35:04;2.55;;;2.03;;
10383;SDS011;5238;43.508;4.980;2022-09-09T15:37:33;1.73;;;1.63;;
10383;SDS011;5238;43.508;4.980;2022-09-09T15:40:05;1.52;;;1.40;;
10383;SDS011;5238;43.508;4.980;2022-09-09T15:42:35;2.08;;;1.50;;
10383;SDS011;5238;43.508;4.980;2022-09-09T15:45:05;3.88;;;1.77;;
10383;SDS011;5238;43.508;4.980;2022-09-09T15:47:34;3.83;;;1.50;;
10383;SDS011;5238;43.508;4.980;2022-09-09T15:50:01;2.50;;;2.30;;
10383;SDS011;5238;43.508;4.980;2022-09-09T15:52:29;1.70;;;1.48;;
10383;SDS011;5238;43.508;4.980;2022-09-09T15:54:56;1.92;;;1.50;;
10383;SDS011;5238;43.508;4.980;2022-09-09T15:57:25;2.67;;;2.30;;
10383;SDS011;5238;43.508;4.980;2022-09-09T15:59:52;1.80;;;1.70;;
10383;SDS011;5238;43.508;4.980;2022-09-09T16:02:20;3.78;;;3.03;;
10383;SDS011;5238;43.508;4.980;2022-09-09T16:04:47;3.05;;;2.33;;
10383;SDS011;5238;43.508;4.980;2022-09-09T16:07:14;5.20;;;3.90;;
10383;SDS011;5238;43.508;4.980;2022-09-09T16:09:42;5.10;;;3.65;;
10383;SDS011;5238;43.508;4.980;2022-09-09T16:12:09;9.32;;;5.90;;
10383;SDS011;5238;43.508;4.980;2022-09-09T16:14:39;4.07;;;3.28;;
10383;SDS011;5238;43.508;4.980;2022-09-09T16:17:07;13.52;;;9.73;;
10383;SDS011;5238;43.508;4.980;2022-09-09T16:19:36;8.00;;;5.68;;
10383;SDS011;5238;43.508;4.980;2022-09-09T16:22:03;15.80;;;11.68;;
10383;SDS011;5238;43.508;4.980;2022-09-09T16:24:32;19.80;;;13.15;;
10383;SDS011;5238;43.508;4.980;2022-09-09T16:27:00;9.15;;;6.55;;
10383;SDS011;5238;43.508;4.980;2022-09-09T16:29:29;5.38;;;3.75;;
10383;SDS011;5238;43.508;4.980;2022-09-09T16:31:58;2.42;;;1.90;;
10383;SDS011;5238;43.508;4.980;2022-09-09T16:34:25;6.22;;;4.50;;
10383;SDS011;5238;43.508;4.980;2022-09-09T16:36:55;5.50;;;3.67;;
10383;SDS011;5238;43.508;4.980;2022-09-09T16:39:25;5.15;;;4.13;;
10383;SDS011;5238;43.508;4.980;2022-09-09T16:41:52;14.40;;;10.73;;
10383;SDS011;5238;43.508;4.980;2022-09-09T16:44:19;9.38;;;6.72;;
10383;SDS011;5238;43.508;4.980;2022-09-09T16:46:48;4.35;;;3.35;;
10383;SDS011;5238;43.508;4.980;2022-09-09T16:49:22;1.55;;;1.45;;
10383;SDS011;5238;43.508;4.980;2022-09-09T16:51:49;1.90;;;1.80;;